TAPA

V.C. Bird International Airport

St. George, Antigua and Barbuda
TAF TAPA 230500Z 2306/2406 09014KT 9999 BKN018 TEMPO 2306/2318 SHRA PROB40 TEMPO 2312/2318 4800 SHRA FEW013CB BKN015 PROB40 TEMPO 2318/2406 SHRA
Issued Valid From Valid To
Apr-23 @ 05:00 UTC
(5 hours ago)
Apr-23 @ 06:00 UTC
(4 hours ago)
Apr-24 @ 06:00 UTC
(in 20 hours)
Apr-23 @ 06:00 to Apr-24 @ 06:00
TAF TAPA 230500Z 2306/2406 09014KT 9999 BKN018
Wind Visibility Clouds
90° at 14 knots 10,000+ meters
  • Broken at 1,800' AGL
Temporary Apr-23 @ 06:00 to Apr-23 @ 18:00
TEMPO 2306/2318 SHRA
Conditions
  • Rain
Temporary  (Probability 40%) Apr-23 @ 12:00 to Apr-23 @ 18:00
PROB40 TEMPO 2312/2318 4800 SHRA FEW013CB BKN015
Visibility Clouds Conditions
4,796 meters
  • Few at 1,300' AGL
  • Broken at 1,500' AGL
  • Rain
Temporary  (Probability 40%) Apr-23 @ 18:00 to Apr-24 @ 06:00
PROB40 TEMPO 2318/2406 SHRA
Conditions
  • Rain
TAF TAPA 230500Z 2306/2406 09014KT 9999 BKN018 TEMPO 2306/2318 SHRA PROB40 TEMPO 2312/2318 4800 SHRA FEW013CB BKN015 PROB40 TEMPO 2318/2406 SHRA
Issued Apr-23 @ 05:00 UTC
(5 hours ago)
Valid From Apr-23 @ 06:00 UTC
(4 hours ago)
Valid To Apr-24 @ 06:00 UTC
(in 20 hours)
Apr-23 @ 06:00 - Apr-24 @ 06:00
Wind Visibility
90° at 14 knots 10,000+ meters
Clouds
  • Broken at 1,800' AGL
Temporary Apr-23 @ 06:00 - Apr-23 @ 18:00
Conditions
  • Rain
Probability 40% Temporary Apr-23 @ 12:00 - Apr-23 @ 18:00
Clouds
  • Few at 1,300' AGL
  • Broken at 1,500' AGL
Conditions
  • Rain
Probability 40% Temporary Apr-23 @ 18:00 - Apr-24 @ 06:00
Conditions
  • Rain